sensor_id;sensor_type;location;lat;lon;timestamp;pressure;altitude;pressure_sealevel;temperature;humidity
39954;BME280;25631;51.516;-0.470;2023-04-04T00:02:35;102667.76;;;6.09;28.59
39954;BME280;25631;51.516;-0.470;2023-04-04T00:05:11;102664.45;;;5.91;28.69
39954;BME280;25631;51.516;-0.470;2023-04-04T00:07:48;102664.88;;;6.06;28.79
39954;BME280;25631;51.516;-0.470;2023-04-04T00:10:24;102662.17;;;5.92;28.85
39954;BME280;25631;51.516;-0.470;2023-04-04T00:13:01;102660.41;;;6.12;28.98
39954;BME280;25631;51.516;-0.470;2023-04-04T00:15:38;102652.89;;;6.00;28.98
39954;BME280;25631;51.516;-0.470;2023-04-04T00:18:14;102651.91;;;5.99;28.96
39954;BME280;25631;51.516;-0.470;2023-04-04T00:20:51;102648.71;;;5.90;28.96
39954;BME280;25631;51.516;-0.470;2023-04-04T00:23:27;102651.05;;;5.89;29.00
39954;BME280;25631;51.516;-0.470;2023-04-04T00:26:03;102647.86;;;5.97;29.03
39954;BME280;25631;51.516;-0.470;2023-04-04T00:28:40;102653.92;;;6.06;28.99
39954;BME280;25631;51.516;-0.470;2023-04-04T00:31:16;102653.84;;;6.03;29.03
39954;BME280;25631;51.516;-0.470;2023-04-04T00:33:53;102651.00;;;5.95;29.00
39954;BME280;25631;51.516;-0.470;2023-04-04T00:36:29;102650.52;;;5.78;28.95
39954;BME280;25631;51.516;-0.470;2023-04-04T00:39:06;102650.75;;;5.87;28.93
39954;BME280;25631;51.516;-0.470;2023-04-04T00:41:43;102649.24;;;5.99;28.92
39954;BME280;25631;51.516;-0.470;2023-04-04T00:44:19;102647.38;;;5.92;28.90
39954;BME280;25631;51.516;-0.470;2023-04-04T00:46:56;102646.78;;;5.88;28.89
39954;BME280;25631;51.516;-0.470;2023-04-04T00:49:33;102642.11;;;5.51;28.87
39954;BME280;25631;51.516;-0.470;2023-04-04T00:52:10;102634.97;;;5.84;28.85
39954;BME280;25631;51.516;-0.470;2023-04-04T00:54:46;102633.66;;;5.73;28.91
39954;BME280;25631;51.516;-0.470;2023-04-04T00:57:23;102631.80;;;5.56;29.01
39954;BME280;25631;51.516;-0.470;2023-04-04T01:00:02;102635.29;;;5.51;29.14
39954;BME280;25631;51.516;-0.470;2023-04-04T01:02:39;102638.26;;;5.54;29.20
39954;BME280;25631;51.516;-0.470;2023-04-04T01:05:16;102639.88;;;5.74;29.16
39954;BME280;25631;51.516;-0.470;2023-04-04T01:07:54;102631.79;;;5.48;29.15
39954;BME280;25631;51.516;-0.470;2023-04-04T01:10:31;102629.39;;;5.59;29.20
39954;BME280;25631;51.516;-0.470;2023-04-04T01:13:07;102623.14;;;5.30;29.21
39954;BME280;25631;51.516;-0.470;2023-04-04T01:15:44;102621.89;;;5.02;29.28
39954;BME280;25631;51.516;-0.470;2023-04-04T01:18:23;102620.51;;;5.52;29.31
39954;BME280;25631;51.516;-0.470;2023-04-04T01:21:02;102616.08;;;5.31;29.30
39954;BME280;25631;51.516;-0.470;2023-04-04T01:23:46;102615.66;;;5.29;29.42
39954;BME280;25631;51.516;-0.470;2023-04-04T01:26:25;102617.52;;;5.03;29.47
39954;BME280;25631;51.516;-0.470;2023-04-04T01:29:02;102613.22;;;5.07;29.52
39954;BME280;25631;51.516;-0.470;2023-04-04T01:31:41;102608.82;;;5.24;29.52
39954;BME280;25631;51.516;-0.470;2023-04-04T01:34:26;102609.45;;;4.94;29.45
39954;BME280;25631;51.516;-0.470;2023-04-04T01:37:09;102611.63;;;4.91;29.41
39954;BME280;25631;51.516;-0.470;2023-04-04T01:39:48;102617.76;;;5.40;29.45
39954;BME280;25631;51.516;-0.470;2023-04-04T01:42:28;102616.16;;;5.22;29.51
39954;BME280;25631;51.516;-0.470;2023-04-04T01:45:07;102614.62;;;5.29;29.56
39954;BME280;25631;51.516;-0.470;2023-04-04T01:47:43;102612.82;;;4.73;29.53
39954;BME280;25631;51.516;-0.470;2023-04-04T01:50:20;102612.12;;;4.81;29.55
39954;BME280;25631;51.516;-0.470;2023-04-04T01:52:57;102613.57;;;4.77;29.54
39954;BME280;25631;51.516;-0.470;2023-04-04T01:55:33;102612.63;;;4.79;29.56
39954;BME280;25631;51.516;-0.470;2023-04-04T01:58:10;102611.84;;;4.69;29.61
39954;BME280;25631;51.516;-0.470;2023-04-04T02:00:47;102608.78;;;4.96;29.68
39954;BME280;25631;51.516;-0.470;2023-04-04T02:03:23;102608.77;;;4.50;29.83
39954;BME280;25631;51.516;-0.470;2023-04-04T02:06:00;102608.60;;;4.58;29.86
39954;BME280;25631;51.516;-0.470;2023-04-04T02:08:36;102605.09;;;4.80;29.95
39954;BME280;25631;51.516;-0.470;2023-04-04T02:11:13;102608.39;;;4.63;30.01
39954;BME280;25631;51.516;-0.470;2023-04-04T02:13:50;102599.47;;;4.88;30.07
39954;BME280;25631;51.516;-0.470;2023-04-04T02:16:26;102597.63;;;4.62;30.05
39954;BME280;25631;51.516;-0.470;2023-04-04T02:19:03;102596.23;;;4.71;30.11
39954;BME280;25631;51.516;-0.470;2023-04-04T02:21:39;102598.03;;;4.51;30.10
39954;BME280;25631;51.516;-0.470;2023-04-04T02:24:16;102596.60;;;4.53;30.16
39954;BME280;25631;51.516;-0.470;2023-04-04T02:26:52;102594.46;;;4.67;30.25
39954;BME280;25631;51.516;-0.470;2023-04-04T02:29:29;102593.89;;;4.42;30.25
39954;BME280;25631;51.516;-0.470;2023-04-04T02:32:06;102597.87;;;4.42;30.30
39954;BME280;25631;51.516;-0.470;2023-04-04T02:34:42;102597.52;;;4.42;30.43
39954;BME280;25631;51.516;-0.470;2023-04-04T02:37:19;102599.26;;;4.37;30.45
39954;BME280;25631;51.516;-0.470;2023-04-04T02:39:55;102599.92;;;4.28;30.53
39954;BME280;25631;51.516;-0.470;2023-04-04T02:42:32;102598.65;;;4.24;30.62
39954;BME280;25631;51.516;-0.470;2023-04-04T02:45:09;102596.69;;;4.11;30.59
39954;BME280;25631;51.516;-0.470;2023-04-04T02:47:49;102601.84;;;4.22;30.70
39954;BME280;25631;51.516;-0.470;2023-04-04T02:50:26;102602.38;;;3.87;30.66
39954;BME280;25631;51.516;-0.470;2023-04-04T02:53:02;102604.08;;;3.91;30.81
39954;BME280;25631;51.516;-0.470;2023-04-04T02:55:39;102602.71;;;3.94;30.89
39954;BME280;25631;51.516;-0.470;2023-04-04T02:58:15;102599.84;;;3.56;31.05
39954;BME280;25631;51.516;-0.470;2023-04-04T03:00:53;102603.30;;;3.82;31.07
39954;BME280;25631;51.516;-0.470;2023-04-04T03:03:30;102603.66;;;3.60;31.15
39954;BME280;25631;51.516;-0.470;2023-04-04T03:06:06;102608.71;;;3.63;31.21
39954;BME280;25631;51.516;-0.470;2023-04-04T03:08:43;102608.87;;;3.63;31.25
39954;BME280;25631;51.516;-0.470;2023-04-04T03:11:20;102606.14;;;3.35;31.31
39954;BME280;25631;51.516;-0.470;2023-04-04T03:13:56;102608.18;;;3.60;31.40
39954;BME280;25631;51.516;-0.470;2023-04-04T03:16:33;102609.18;;;3.57;31.43
39954;BME280;25631;51.516;-0.470;2023-04-04T03:19:10;102609.34;;;3.47;31.47
39954;BME280;25631;51.516;-0.470;2023-04-04T03:21:46;102607.47;;;3.65;31.48
39954;BME280;25631;51.516;-0.470;2023-04-04T03:24:22;102604.60;;;3.72;31.54
39954;BME280;25631;51.516;-0.470;2023-04-04T03:26:59;102605.81;;;3.79;31.54
39954;BME280;25631;51.516;-0.470;2023-04-04T03:29:36;102605.90;;;3.65;31.58
39954;BME280;25631;51.516;-0.470;2023-04-04T03:32:12;102607.03;;;3.40;31.55
39954;BME280;25631;51.516;-0.470;2023-04-04T03:34:49;102611.22;;;3.47;31.72
39954;BME280;25631;51.516;-0.470;2023-04-04T03:37:25;102610.28;;;3.09;31.79
39954;BME280;25631;51.516;-0.470;2023-04-04T03:40:03;102611.69;;;3.56;31.86
39954;BME280;25631;51.516;-0.470;2023-04-04T03:42:39;102614.24;;;3.49;31.89
39954;BME280;25631;51.516;-0.470;2023-04-04T03:45:16;102611.11;;;3.11;31.94
39954;BME280;25631;51.516;-0.470;2023-04-04T03:47:52;102609.60;;;3.18;31.95
39954;BME280;25631;51.516;-0.470;2023-04-04T03:50:29;102603.24;;;3.34;31.99
39954;BME280;25631;51.516;-0.470;2023-04-04T03:53:05;102605.94;;;3.23;31.97
39954;BME280;25631;51.516;-0.470;2023-04-04T03:55:41;102606.24;;;3.32;31.97
39954;BME280;25631;51.516;-0.470;2023-04-04T03:58:18;102607.97;;;3.17;31.97
39954;BME280;25631;51.516;-0.470;2023-04-04T04:00:55;102607.75;;;3.12;32.07
39954;BME280;25631;51.516;-0.470;2023-04-04T04:03:31;102610.40;;;3.01;32.01
39954;BME280;25631;51.516;-0.470;2023-04-04T04:06:08;102610.21;;;3.17;32.07
39954;BME280;25631;51.516;-0.470;2023-04-04T04:08:44;102612.42;;;3.11;32.11
39954;BME280;25631;51.516;-0.470;2023-04-04T04:11:21;102610.10;;;3.00;32.09
39954;BME280;25631;51.516;-0.470;2023-04-04T04:13:58;102607.66;;;3.08;32.09
39954;BME280;25631;51.516;-0.470;2023-04-04T04:16:38;102606.68;;;3.16;32.12
39954;BME280;25631;51.516;-0.470;2023-04-04T04:19:15;102601.96;;;2.86;32.20
39954;BME280;25631;51.516;-0.470;2023-04-04T04:21:51;102599.06;;;2.94;32.25
39954;BME280;25631;51.516;-0.470;2023-04-04T04:24:28;102599.99;;;2.99;32.29
39954;BME280;25631;51.516;-0.470;2023-04-04T04:27:04;102600.01;;;2.90;32.34
39954;BME280;25631;51.516;-0.470;2023-04-04T04:29:41;102602.86;;;2.84;32.45
39954;BME280;25631;51.516;-0.470;2023-04-04T04:32:18;102598.37;;;2.59;32.54
39954;BME280;25631;51.516;-0.470;2023-04-04T04:34:54;102594.93;;;2.87;32.54
39954;BME280;25631;51.516;-0.470;2023-04-04T04:37:31;102592.62;;;2.88;32.55
39954;BME280;25631;51.516;-0.470;2023-04-04T04:40:09;102594.32;;;-0.38;32.46
39954;BME280;25631;51.516;-0.470;2023-04-04T04:42:45;102590.92;;;3.24;32.05
39954;BME280;25631;51.516;-0.470;2023-04-04T04:45:22;102585.02;;;3.03;32.16
39954;BME280;25631;51.516;-0.470;2023-04-04T04:47:59;102580.70;;;2.85;32.25
39954;BME280;25631;51.516;-0.470;2023-04-04T04:50:35;102582.99;;;3.06;32.26
39954;BME280;25631;51.516;-0.470;2023-04-04T04:53:12;102582.13;;;3.11;32.29
39954;BME280;25631;51.516;-0.470;2023-04-04T04:55:48;102581.79;;;3.03;32.28
39954;BME280;25631;51.516;-0.470;2023-04-04T04:58:25;102580.99;;;3.03;32.33
39954;BME280;25631;51.516;-0.470;2023-04-04T05:01:01;102581.57;;;3.11;32.24
39954;BME280;25631;51.516;-0.470;2023-04-04T05:03:38;102581.99;;;3.10;32.25
39954;BME280;25631;51.516;-0.470;2023-04-04T05:06:14;102585.20;;;2.77;32.30
39954;BME280;25631;51.516;-0.470;2023-04-04T05:08:51;102587.58;;;2.91;32.31
39954;BME280;25631;51.516;-0.470;2023-04-04T05:11:27;102590.36;;;2.94;32.35
39954;BME280;25631;51.516;-0.470;2023-04-04T05:14:04;102595.62;;;2.78;32.41
39954;BME280;25631;51.516;-0.470;2023-04-04T05:16:41;102597.38;;;2.82;32.44
39954;BME280;25631;51.516;-0.470;2023-04-04T05:19:17;102602.51;;;2.80;32.47
39954;BME280;25631;51.516;-0.470;2023-04-04T05:21:54;102604.57;;;2.73;32.49
39954;BME280;25631;51.516;-0.470;2023-04-04T05:24:30;102604.08;;;2.62;32.51
39954;BME280;25631;51.516;-0.470;2023-04-04T05:27:06;102610.60;;;2.41;32.52
39954;BME280;25631;51.516;-0.470;2023-04-04T05:29:43;102610.64;;;2.49;32.65
39954;BME280;25631;51.516;-0.470;2023-04-04T05:32:20;102612.02;;;2.50;32.76
39954;BME280;25631;51.516;-0.470;2023-04-04T05:34:56;102614.96;;;2.44;32.75
39954;BME280;25631;51.516;-0.470;2023-04-04T05:37:33;102620.28;;;2.40;32.76
39954;BME280;25631;51.516;-0.470;2023-04-04T05:40:14;102621.08;;;2.53;32.85
39954;BME280;25631;51.516;-0.470;2023-04-04T05:42:54;102623.76;;;2.96;32.93
39954;BME280;25631;51.516;-0.470;2023-04-04T05:45:31;102625.66;;;2.43;32.98
39954;BME280;25631;51.516;-0.470;2023-04-04T05:48:07;102627.78;;;2.56;33.02
39954;BME280;25631;51.516;-0.470;2023-04-04T05:50:44;102629.17;;;2.44;33.16
39954;BME280;25631;51.516;-0.470;2023-04-04T05:53:21;102628.23;;;2.18;33.23
39954;BME280;25631;51.516;-0.470;2023-04-04T05:55:57;102627.05;;;2.88;33.22
39954;BME280;25631;51.516;-0.470;2023-04-04T05:58:34;102626.87;;;2.32;33.34
39954;BME280;25631;51.516;-0.470;2023-04-04T06:01:11;102627.98;;;2.52;33.38
39954;BME280;25631;51.516;-0.470;2023-04-04T06:03:47;102629.73;;;2.08;33.47
39954;BME280;25631;51.516;-0.470;2023-04-04T06:06:23;102631.77;;;2.61;33.52
39954;BME280;25631;51.516;-0.470;2023-04-04T06:09:01;102632.58;;;2.65;33.55
39954;BME280;25631;51.516;-0.470;2023-04-04T06:11:37;102634.97;;;2.30;33.56
39954;BME280;25631;51.516;-0.470;2023-04-04T06:14:14;102634.23;;;2.42;33.61
39954;BME280;25631;51.516;-0.470;2023-04-04T06:16:50;102635.96;;;2.29;33.74
39954;BME280;25631;51.516;-0.470;2023-04-04T06:19:27;102633.93;;;2.53;33.76
39954;BME280;25631;51.516;-0.470;2023-04-04T06:22:04;102637.19;;;2.70;33.80
39954;BME280;25631;51.516;-0.470;2023-04-04T06:24:46;102639.70;;;2.52;33.82
39954;BME280;25631;51.516;-0.470;2023-04-04T06:27:22;102639.40;;;2.56;33.90
39954;BME280;25631;51.516;-0.470;2023-04-04T06:29:58;102638.04;;;2.68;33.93
39954;BME280;25631;51.516;-0.470;2023-04-04T06:32:35;102639.70;;;2.67;33.93
39954;BME280;25631;51.516;-0.470;2023-04-04T06:35:11;102643.64;;;2.50;33.89
39954;BME280;25631;51.516;-0.470;2023-04-04T06:37:53;102644.64;;;2.57;33.94
39954;BME280;25631;51.516;-0.470;2023-04-04T06:40:30;102642.32;;;2.92;34.01
39954;BME280;25631;51.516;-0.470;2023-04-04T06:43:08;102645.52;;;2.63;34.00
39954;BME280;25631;51.516;-0.470;2023-04-04T06:45:44;102648.70;;;2.94;33.97
39954;BME280;25631;51.516;-0.470;2023-04-04T06:48:21;102648.47;;;2.95;34.00
39954;BME280;25631;51.516;-0.470;2023-04-04T06:50:57;102649.36;;;3.10;33.93
39954;BME280;25631;51.516;-0.470;2023-04-04T06:53:34;102650.40;;;3.23;33.92
39954;BME280;25631;51.516;-0.470;2023-04-04T06:56:12;102652.33;;;3.27;33.89
39954;BME280;25631;51.516;-0.470;2023-04-04T06:58:48;102651.37;;;3.47;33.89
39954;BME280;25631;51.516;-0.470;2023-04-04T07:01:25;102654.76;;;3.70;33.85
39954;BME280;25631;51.516;-0.470;2023-04-04T07:04:01;102659.51;;;3.38;33.77
39954;BME280;25631;51.516;-0.470;2023-04-04T07:06:38;102652.49;;;3.43;33.66
39954;BME280;25631;51.516;-0.470;2023-04-04T07:09:14;102650.20;;;3.73;33.67
39954;BME280;25631;51.516;-0.470;2023-04-04T07:11:51;102648.46;;;3.65;33.70
39954;BME280;25631;51.516;-0.470;2023-04-04T07:14:27;102647.55;;;3.94;33.65
39954;BME280;25631;51.516;-0.470;2023-04-04T07:17:03;102648.01;;;4.00;33.59
39954;BME280;25631;51.516;-0.470;2023-04-04T07:19:40;102652.93;;;3.97;33.52
39954;BME280;25631;51.516;-0.470;2023-04-04T07:22:17;102650.60;;;4.13;33.48
39954;BME280;25631;51.516;-0.470;2023-04-04T07:24:54;102647.83;;;4.23;33.39
39954;BME280;25631;51.516;-0.470;2023-04-04T07:27:30;102644.50;;;4.31;33.12
39954;BME280;25631;51.516;-0.470;2023-04-04T07:30:08;102639.91;;;4.49;33.20
39954;BME280;25631;51.516;-0.470;2023-04-04T07:32:45;102638.90;;;4.32;33.21
39954;BME280;25631;51.516;-0.470;2023-04-04T07:35:21;102639.11;;;4.39;33.20
39954;BME280;25631;51.516;-0.470;2023-04-04T07:37:57;102641.29;;;4.44;33.31
39954;BME280;25631;51.516;-0.470;2023-04-04T07:40:34;102638.37;;;4.59;33.33
39954;BME280;25631;51.516;-0.470;2023-04-04T07:43:11;102638.18;;;4.77;33.40
39954;BME280;25631;51.516;-0.470;2023-04-04T07:45:47;102638.16;;;4.82;33.41
39954;BME280;25631;51.516;-0.470;2023-04-04T07:48:24;102637.54;;;4.82;33.38
39954;BME280;25631;51.516;-0.470;2023-04-04T07:51:01;102632.32;;;5.16;33.25
39954;BME280;25631;51.516;-0.470;2023-04-04T07:53:38;102629.39;;;5.30;33.18
39954;BME280;25631;51.516;-0.470;2023-04-04T07:56:14;102624.27;;;5.34;33.11
39954;BME280;25631;51.516;-0.470;2023-04-04T07:58:51;102625.21;;;5.31;32.99
39954;BME280;25631;51.516;-0.470;2023-04-04T08:01:27;102620.75;;;5.14;32.73
39954;BME280;25631;51.516;-0.470;2023-04-04T08:04:04;102620.90;;;5.11;32.70
39954;BME280;25631;51.516;-0.470;2023-04-04T08:06:41;102621.29;;;5.28;32.65
39954;BME280;25631;51.516;-0.470;2023-04-04T08:09:17;102618.46;;;5.24;32.62
39954;BME280;25631;51.516;-0.470;2023-04-04T08:11:54;102610.49;;;5.44;32.44
39954;BME280;25631;51.516;-0.470;2023-04-04T08:14:30;102607.76;;;5.43;32.28
39954;BME280;25631;51.516;-0.470;2023-04-04T08:17:07;102602.44;;;5.58;32.10
39954;BME280;25631;51.516;-0.470;2023-04-04T08:19:44;102598.94;;;5.76;31.78
39954;BME280;25631;51.516;-0.470;2023-04-04T08:22:20;102600.47;;;5.91;31.67
39954;BME280;25631;51.516;-0.470;2023-04-04T08:24:57;102596.99;;;5.73;31.34
39954;BME280;25631;51.516;-0.470;2023-04-04T08:27:33;102593.94;;;6.11;31.14
39954;BME280;25631;51.516;-0.470;2023-04-04T08:30:11;102594.53;;;5.93;30.95
39954;BME280;25631;51.516;-0.470;2023-04-04T08:32:48;102590.89;;;6.39;30.96
39954;BME280;25631;51.516;-0.470;2023-04-04T08:35:24;102595.46;;;6.24;30.73
39954;BME280;25631;51.516;-0.470;2023-04-04T08:38:01;102600.12;;;6.00;30.54
39954;BME280;25631;51.516;-0.470;2023-04-04T08:40:38;102602.59;;;5.98;30.45
39954;BME280;25631;51.516;-0.470;2023-04-04T08:43:15;102605.71;;;5.80;30.06
39954;BME280;25631;51.516;-0.470;2023-04-04T08:45:53;102610.47;;;5.73;30.25
39954;BME280;25631;51.516;-0.470;2023-04-04T08:48:30;102610.55;;;6.33;30.16
39954;BME280;25631;51.516;-0.470;2023-04-04T08:51:09;102608.39;;;6.23;29.89
39954;BME280;25631;51.516;-0.470;2023-04-04T08:53:47;102605.46;;;6.56;29.85
39954;BME280;25631;51.516;-0.470;2023-04-04T08:56:25;102608.68;;;6.69;29.66
39954;BME280;25631;51.516;-0.470;2023-04-04T08:59:01;102605.88;;;6.40;29.46
39954;BME280;25631;51.516;-0.470;2023-04-04T09:01:38;102606.89;;;6.28;29.47
39954;BME280;25631;51.516;-0.470;2023-04-04T09:04:16;102607.67;;;6.72;29.51
39954;BME280;25631;51.516;-0.470;2023-04-04T09:06:53;102606.52;;;6.50;29.27
39954;BME280;25631;51.516;-0.470;2023-04-04T09:09:30;102603.87;;;6.68;28.83
39954;BME280;25631;51.516;-0.470;2023-04-04T09:12:07;102597.76;;;7.06;28.68
39954;BME280;25631;51.516;-0.470;2023-04-04T09:14:45;102595.54;;;7.08;28.40
39954;BME280;25631;51.516;-0.470;2023-04-04T09:17:22;102590.09;;;7.01;28.42
39954;BME280;25631;51.516;-0.470;2023-04-04T09:20:00;102586.05;;;6.71;27.88
39954;BME280;25631;51.516;-0.470;2023-04-04T09:22:43;102583.47;;;7.23;27.56
39954;BME280;25631;51.516;-0.470;2023-04-04T09:25:21;102582.73;;;7.12;27.42
39954;BME280;25631;51.516;-0.470;2023-04-04T09:27:58;102583.05;;;7.28;27.00
39954;BME280;25631;51.516;-0.470;2023-04-04T09:30:35;102576.72;;;7.34;27.12
39954;BME280;25631;51.516;-0.470;2023-04-04T09:33:13;102571.41;;;7.45;26.44
39954;BME280;25631;51.516;-0.470;2023-04-04T09:35:53;102577.05;;;6.92;26.29
39954;BME280;25631;51.516;-0.470;2023-04-04T09:38:30;102579.28;;;7.31;26.63
39954;BME280;25631;51.516;-0.470;2023-04-04T09:41:07;102573.29;;;7.30;26.69
39954;BME280;25631;51.516;-0.470;2023-04-04T09:43:44;102569.67;;;7.74;26.69
39954;BME280;25631;51.516;-0.470;2023-04-04T09:46:21;102564.34;;;7.35;26.68
39954;BME280;25631;51.516;-0.470;2023-04-04T09:48:59;102564.46;;;7.44;26.76
39954;BME280;25631;51.516;-0.470;2023-04-04T09:51:36;102567.17;;;7.61;26.52
39954;BME280;25631;51.516;-0.470;2023-04-04T09:54:20;102568.21;;;7.48;26.51
39954;BME280;25631;51.516;-0.470;2023-04-04T09:56:57;102568.54;;;7.77;26.41
39954;BME280;25631;51.516;-0.470;2023-04-04T09:59:34;102570.92;;;7.54;26.82
39954;BME280;25631;51.516;-0.470;2023-04-04T10:02:11;102568.92;;;7.48;26.67
39954;BME280;25631;51.516;-0.470;2023-04-04T10:04:48;102564.79;;;7.55;26.82
39954;BME280;25631;51.516;-0.470;2023-04-04T10:07:25;102565.53;;;7.42;26.82
39954;BME280;25631;51.516;-0.470;2023-04-04T10:10:04;102565.81;;;7.46;26.72
39954;BME280;25631;51.516;-0.470;2023-04-04T10:12:44;102557.03;;;7.38;26.57
39954;BME280;25631;51.516;-0.470;2023-04-04T10:15:21;102555.78;;;7.41;26.86
39954;BME280;25631;51.516;-0.470;2023-04-04T10:17:58;102557.71;;;7.67;26.80
39954;BME280;25631;51.516;-0.470;2023-04-04T10:20:36;102558.84;;;7.70;26.23
39954;BME280;25631;51.516;-0.470;2023-04-04T10:23:13;102554.43;;;7.82;26.38
39954;BME280;25631;51.516;-0.470;2023-04-04T10:25:50;102545.18;;;8.17;26.47
39954;BME280;25631;51.516;-0.470;2023-04-04T10:28:27;102544.31;;;8.15;26.19
39954;BME280;25631;51.516;-0.470;2023-04-04T10:31:08;102540.60;;;7.98;25.70
39954;BME280;25631;51.516;-0.470;2023-04-04T10:33:52;102539.55;;;7.62;24.75
39954;BME280;25631;51.516;-0.470;2023-04-04T10:36:39;102534.97;;;7.99;24.94
39954;BME280;25631;51.516;-0.470;2023-04-04T10:39:24;102532.84;;;8.19;25.22
39954;BME280;25631;51.516;-0.470;2023-04-04T10:42:04;102527.27;;;8.19;25.27
39954;BME280;25631;51.516;-0.470;2023-04-04T10:44:42;102528.43;;;8.67;25.14
39954;BME280;25631;51.516;-0.470;2023-04-04T10:47:21;102530.45;;;8.65;25.36
39954;BME280;25631;51.516;-0.470;2023-04-04T10:49:58;102531.37;;;8.69;25.05
39954;BME280;25631;51.516;-0.470;2023-04-04T10:52:35;102533.16;;;8.48;25.22
39954;BME280;25631;51.516;-0.470;2023-04-04T10:55:13;102533.42;;;8.65;24.84
39954;BME280;25631;51.516;-0.470;2023-04-04T10:57:51;102532.79;;;8.62;25.02
39954;BME280;25631;51.516;-0.470;2023-04-04T11:00:28;102534.33;;;8.42;25.17
39954;BME280;25631;51.516;-0.470;2023-04-04T11:03:05;102538.02;;;8.54;25.23
39954;BME280;25631;51.516;-0.470;2023-04-04T11:05:41;102534.28;;;8.95;25.20
39954;BME280;25631;51.516;-0.470;2023-04-04T11:08:21;102535.32;;;9.38;25.23
39954;BME280;25631;51.516;-0.470;2023-04-04T11:10:58;102528.77;;;9.19;25.02
39954;BME280;25631;51.516;-0.470;2023-04-04T11:13:35;102534.40;;;9.11;24.63
39954;BME280;25631;51.516;-0.470;2023-04-04T11:16:12;102533.27;;;8.91;24.08
39954;BME280;25631;51.516;-0.470;2023-04-04T11:18:48;102533.24;;;9.34;23.96
39954;BME280;25631;51.516;-0.470;2023-04-04T11:21:31;102525.55;;;9.47;23.77
39954;BME280;25631;51.516;-0.470;2023-04-04T11:24:15;102525.54;;;9.45;24.16
39954;BME280;25631;51.516;-0.470;2023-04-04T11:26:54;102530.32;;;9.81;24.26
39954;BME280;25631;51.516;-0.470;2023-04-04T11:29:49;102531.03;;;9.56;23.67
39954;BME280;25631;51.516;-0.470;2023-04-04T11:32:32;102526.78;;;9.61;23.45
39954;BME280;25631;51.516;-0.470;2023-04-04T11:35:09;102527.16;;;9.58;23.05
39954;BME280;25631;51.516;-0.470;2023-04-04T11:37:58;102526.70;;;9.66;23.03
39954;BME280;25631;51.516;-0.470;2023-04-04T11:40:37;102527.27;;;9.78;23.03
39954;BME280;25631;51.516;-0.470;2023-04-04T11:43:14;102522.35;;;9.32;22.58
39954;BME280;25631;51.516;-0.470;2023-04-04T11:45:51;102524.92;;;9.56;22.82
39954;BME280;25631;51.516;-0.470;2023-04-04T11:48:29;102521.00;;;9.97;22.63
39954;BME280;25631;51.516;-0.470;2023-04-04T11:51:07;102523.90;;;9.72;22.59
39954;BME280;25631;51.516;-0.470;2023-04-04T11:53:46;102515.56;;;9.90;22.58
39954;BME280;25631;51.516;-0.470;2023-04-04T11:56:22;102515.13;;;10.08;22.61
39954;BME280;25631;51.516;-0.470;2023-04-04T11:58:59;102511.15;;;10.09;22.57
39954;BME280;25631;51.516;-0.470;2023-04-04T12:01:38;102508.53;;;10.38;22.35
39954;BME280;25631;51.516;-0.470;2023-04-04T12:04:16;102502.29;;;10.36;22.44
39954;BME280;25631;51.516;-0.470;2023-04-04T12:06:54;102499.62;;;10.86;22.63
39954;BME280;25631;51.516;-0.470;2023-04-04T12:09:32;102494.88;;;11.13;22.17
39954;BME280;25631;51.516;-0.470;2023-04-04T12:12:11;102496.45;;;11.08;22.02
39954;BME280;25631;51.516;-0.470;2023-04-04T12:14:48;102497.49;;;11.08;21.91
39954;BME280;25631;51.516;-0.470;2023-04-04T12:17:28;102501.20;;;11.26;21.89
39954;BME280;25631;51.516;-0.470;2023-04-04T12:20:07;102498.68;;;11.26;22.06
39954;BME280;25631;51.516;-0.470;2023-04-04T12:22:47;102498.91;;;11.76;21.95
39954;BME280;25631;51.516;-0.470;2023-04-04T12:25:24;102496.46;;;11.45;22.02
39954;BME280;25631;51.516;-0.470;2023-04-04T12:28:03;102494.03;;;11.22;21.79
39954;BME280;25631;51.516;-0.470;2023-04-04T12:30:40;102487.70;;;11.13;21.99
39954;BME280;25631;51.516;-0.470;2023-04-04T12:33:17;102485.15;;;11.36;21.81
39954;BME280;25631;51.516;-0.470;2023-04-04T12:35:54;102480.67;;;11.77;21.58
39954;BME280;25631;51.516;-0.470;2023-04-04T12:38:30;102480.76;;;11.86;21.47
39954;BME280;25631;51.516;-0.470;2023-04-04T12:41:14;102479.96;;;11.94;21.27
39954;BME280;25631;51.516;-0.470;2023-04-04T12:43:51;102476.47;;;12.07;21.06
39954;BME280;25631;51.516;-0.470;2023-04-04T12:46:36;102477.16;;;12.35;21.04
39954;BME280;25631;51.516;-0.470;2023-04-04T12:49:13;102480.22;;;12.21;21.15
39954;BME280;25631;51.516;-0.470;2023-04-04T12:51:52;102479.64;;;12.35;20.96
39954;BME280;25631;51.516;-0.470;2023-04-04T12:54:30;102478.84;;;12.45;20.71
39954;BME280;25631;51.516;-0.470;2023-04-04T12:57:07;102470.14;;;12.52;20.79
39954;BME280;25631;51.516;-0.470;2023-04-04T12:59:45;102471.30;;;12.72;20.73
39954;BME280;25631;51.516;-0.470;2023-04-04T13:02:22;102464.61;;;12.65;20.71
39954;BME280;25631;51.516;-0.470;2023-04-04T13:04:59;102462.55;;;12.77;20.62
39954;BME280;25631;51.516;-0.470;2023-04-04T13:07:37;102455.98;;;12.97;20.42
39954;BME280;25631;51.516;-0.470;2023-04-04T13:10:15;102458.02;;;13.04;19.50
39954;BME280;25631;51.516;-0.470;2023-04-04T13:12:57;102453.84;;;13.18;19.58
39954;BME280;25631;51.516;-0.470;2023-04-04T13:15:50;102451.23;;;12.87;19.23
39954;BME280;25631;51.516;-0.470;2023-04-04T13:18:34;102442.20;;;13.11;19.50
39954;BME280;25631;51.516;-0.470;2023-04-04T13:21:11;102441.60;;;13.40;19.28
39954;BME280;25631;51.516;-0.470;2023-04-04T13:23:48;102437.09;;;13.48;19.05
39954;BME280;25631;51.516;-0.470;2023-04-04T13:26:24;102433.83;;;13.55;19.20
39954;BME280;25631;51.516;-0.470;2023-04-04T13:29:01;102430.86;;;13.64;19.10
39954;BME280;25631;51.516;-0.470;2023-04-04T13:31:37;102430.47;;;13.57;19.02
39954;BME280;25631;51.516;-0.470;2023-04-04T13:34:20;102425.32;;;13.69;19.09
39954;BME280;25631;51.516;-0.470;2023-04-04T13:36:57;102421.73;;;13.65;18.86
39954;BME280;25631;51.516;-0.470;2023-04-04T13:39:34;102423.12;;;13.94;18.99
39954;BME280;25631;51.516;-0.470;2023-04-04T13:42:11;102411.91;;;13.82;18.19